createdAt,value
2022-10-28T00:02:25.879Z,7.04
2022-10-28T00:08:05.802Z,7.18
2022-10-28T00:13:45.850Z,7.23
2022-10-28T00:19:27.782Z,7.20
2022-10-28T00:25:07.822Z,7.22
2022-10-28T00:30:47.831Z,7.28
2022-10-28T00:36:29.870Z,7.40
2022-10-28T00:42:11.812Z,7.46
2022-10-28T00:48:04.837Z,7.56
2022-10-28T00:53:45.770Z,7.66
2022-10-28T00:59:31.831Z,7.82
2022-10-28T01:05:11.797Z,7.96
2022-10-28T01:11:22.838Z,7.97
2022-10-28T01:17:13.893Z,7.93
2022-10-28T01:23:00.829Z,7.93
2022-10-28T01:29:35.003Z,7.96
2022-10-28T01:35:26.869Z,8.02
2022-10-28T01:41:12.981Z,8.01
2022-10-28T01:46:58.839Z,7.98
2022-10-28T01:52:42.890Z,7.97
2022-10-28T01:58:26.965Z,8.04
2022-10-28T02:04:07.824Z,8.10
2022-10-28T02:10:04.824Z,8.09
2022-10-28T02:15:56.857Z,8.09
2022-10-28T02:21:47.886Z,8.06
2022-10-28T02:27:35.949Z,8.06
2022-10-28T02:33:18.862Z,8.08
2022-10-28T02:39:02.921Z,8.06
2022-10-28T02:44:47.844Z,8.12
2022-10-28T02:50:31.877Z,8.22
2022-10-28T02:56:14.853Z,8.25
2022-10-28T03:01:55.066Z,8.22
2022-10-28T03:07:41.887Z,8.20
2022-10-28T03:13:21.906Z,8.22
2022-10-28T03:19:01.935Z,8.22
2022-10-28T03:24:41.910Z,8.21
2022-10-28T03:30:24.887Z,8.20
2022-10-28T03:36:04.989Z,8.23
2022-10-28T03:41:44.883Z,8.26
2022-10-28T03:47:24.891Z,8.22
2022-10-28T03:53:04.977Z,8.17
2022-10-28T03:58:45.099Z,8.14
2022-10-28T04:04:28.407Z,8.11
2022-10-28T04:10:11.022Z,8.11
2022-10-28T04:15:50.919Z,8.08
2022-10-28T04:21:30.904Z,8.07
2022-10-28T04:27:10.885Z,8.09
2022-10-28T04:32:51.954Z,8.10
2022-10-28T04:38:31.948Z,8.08
2022-10-28T04:44:11.988Z,8.04
2022-10-28T04:49:52.044Z,8.04
2022-10-28T04:55:32.033Z,8.07
2022-10-28T05:01:12.257Z,8.09
2022-10-28T05:06:51.979Z,8.08
2022-10-28T05:12:31.970Z,8.08
2022-10-28T05:18:11.970Z,8.11
2022-10-28T05:23:51.948Z,8.14
2022-10-28T05:29:33.514Z,8.17
2022-10-28T05:35:12.994Z,8.17
2022-10-28T05:40:53.045Z,8.25
2022-10-28T05:46:32.977Z,8.35
2022-10-28T05:52:13.216Z,8.39
2022-10-28T05:57:53.406Z,8.39
2022-10-28T06:03:33.138Z,8.41
2022-10-28T06:09:19.998Z,8.51
2022-10-28T06:14:58.574Z,8.56
2022-10-28T06:20:38.537Z,8.64
2022-10-28T06:26:18.431Z,8.73
2022-10-28T06:31:58.506Z,8.86
2022-10-28T06:37:38.515Z,8.99
2022-10-28T06:43:20.508Z,9.07
2022-10-28T06:49:02.094Z,9.22
2022-10-28T06:54:42.081Z,9.38
2022-10-28T07:00:24.070Z,9.56
2022-10-28T07:06:05.120Z,9.84
2022-10-28T07:11:45.048Z,10.10
2022-10-28T07:17:25.123Z,10.39
2022-10-28T07:23:13.125Z,10.67
2022-10-28T07:28:53.248Z,10.85
2022-10-28T07:34:33.129Z,11.01
2022-10-28T07:40:13.074Z,11.40
2022-10-28T07:45:53.185Z,11.75
2022-10-28T07:51:33.126Z,11.91
2022-10-28T07:57:13.063Z,12.20
2022-10-28T08:02:53.089Z,13.16
2022-10-28T08:08:33.120Z,13.83
2022-10-28T08:14:13.182Z,14.10
2022-10-28T08:19:56.088Z,14.20
2022-10-28T08:25:36.157Z,15.11
2022-10-28T08:31:20.136Z,15.40
2022-10-28T08:37:00.210Z,14.98
2022-10-28T08:42:55.479Z,14.70
2022-10-28T08:48:43.056Z,14.82
2022-10-28T08:54:32.140Z,15.03
2022-10-28T09:00:13.101Z,15.56
2022-10-28T09:05:56.090Z,17.25
2022-10-28T09:11:59.100Z,19.26
2022-10-28T09:17:48.096Z,20.62
2022-10-28T09:23:35.131Z,21.93
2022-10-28T09:29:33.117Z,22.77
2022-10-28T09:35:17.110Z,22.35
2022-10-28T09:41:03.138Z,22.99
2022-10-28T09:46:43.149Z,23.41
2022-10-28T09:52:31.148Z,23.55
2022-10-28T09:58:11.194Z,23.23
2022-10-28T10:03:52.191Z,22.78
2022-10-28T10:09:37.380Z,22.46
2022-10-28T10:15:22.152Z,22.62
2022-10-28T10:21:07.210Z,22.95
2022-10-28T10:26:48.313Z,23.18
2022-10-28T10:32:36.207Z,22.95
2022-10-28T10:38:19.256Z,22.63
2022-10-28T10:43:59.189Z,22.43
2022-10-28T10:49:39.269Z,22.33
2022-10-28T10:55:32.157Z,22.12
2022-10-28T11:01:14.281Z,21.86
2022-10-28T11:06:57.188Z,21.68
2022-10-28T11:12:43.230Z,21.59
2022-10-28T11:18:36.154Z,21.60
2022-10-28T11:24:30.192Z,21.56
2022-10-28T11:30:12.191Z,21.40
2022-10-28T11:36:09.191Z,21.53
2022-10-28T11:42:04.272Z,21.49
2022-10-28T11:48:08.248Z,21.58
2022-10-28T11:54:18.389Z,21.43
2022-10-28T12:00:34.262Z,21.28
2022-10-28T12:06:23.277Z,21.29
2022-10-28T12:12:19.326Z,21.30
2022-10-28T12:18:14.230Z,21.25
2022-10-28T12:23:56.280Z,21.20
2022-10-28T12:29:40.213Z,21.13
2022-10-28T12:35:30.293Z,21.19
2022-10-28T12:41:17.208Z,21.23
2022-10-28T12:47:06.280Z,21.27
2022-10-28T12:52:55.310Z,21.23
2022-10-28T12:58:40.230Z,21.17
2022-10-28T13:04:20.233Z,21.12
2022-10-28T13:10:09.405Z,21.09
2022-10-28T13:16:11.261Z,21.15
2022-10-28T13:22:11.261Z,21.21
2022-10-28T13:27:51.481Z,21.13
2022-10-28T13:33:35.302Z,20.87
2022-10-28T13:39:17.251Z,20.44
2022-10-28T13:45:04.246Z,20.04
2022-10-28T13:50:51.335Z,19.70
2022-10-28T13:56:57.314Z,19.38
2022-10-28T14:02:48.369Z,19.10
2022-10-28T14:08:36.265Z,18.85
2022-10-28T14:14:17.248Z,18.62
2022-10-28T14:20:04.301Z,18.38
2022-10-28T14:26:17.333Z,18.07
2022-10-28T14:31:58.312Z,17.78
2022-10-28T14:38:20.332Z,17.53
2022-10-28T14:44:10.394Z,17.27
2022-10-28T14:49:52.304Z,17.06
2022-10-28T14:55:41.287Z,16.89
2022-10-28T15:01:41.505Z,16.82
2022-10-28T15:07:26.451Z,16.73
2022-10-28T15:13:10.279Z,16.53
2022-10-28T15:19:02.326Z,16.30
2022-10-28T15:24:44.765Z,16.16
2022-10-28T15:30:33.369Z,16.01
2022-10-28T15:36:27.344Z,15.92
2022-10-28T15:42:09.347Z,15.86
2022-10-28T15:47:51.494Z,15.76
2022-10-28T15:53:51.341Z,15.59
2022-10-28T15:59:35.333Z,15.44
2022-10-28T16:05:15.308Z,15.39
2022-10-28T16:11:00.397Z,15.44
2022-10-28T16:16:43.332Z,15.46
2022-10-28T16:22:27.345Z,15.46
2022-10-28T16:28:07.382Z,15.47
2022-10-28T16:33:50.445Z,15.51
2022-10-28T16:39:30.553Z,15.54
2022-10-28T16:45:10.373Z,15.59
2022-10-28T16:50:50.405Z,15.64
2022-10-28T16:56:31.485Z,15.67
2022-10-28T17:02:11.508Z,15.67
2022-10-28T17:07:51.595Z,15.65
2022-10-28T17:13:31.430Z,15.65
2022-10-28T17:19:11.395Z,15.55
2022-10-28T17:24:51.402Z,15.50
2022-10-28T17:30:32.566Z,15.34
2022-10-28T17:36:15.386Z,15.17
2022-10-28T17:41:55.566Z,15.03
2022-10-28T17:47:35.417Z,14.88
2022-10-28T17:53:15.458Z,14.72
2022-10-28T17:58:55.404Z,14.62
2022-10-28T18:04:35.405Z,14.50
2022-10-28T18:10:15.469Z,14.38
2022-10-28T18:15:55.426Z,14.43
2022-10-28T18:21:42.441Z,14.57
2022-10-28T18:27:22.517Z,14.64
2022-10-28T18:33:02.453Z,14.64
2022-10-28T18:38:43.485Z,14.57
2022-10-28T18:44:26.564Z,14.49
2022-10-28T18:50:06.467Z,14.43
2022-10-28T18:55:46.455Z,14.41
2022-10-28T19:01:28.621Z,14.38
2022-10-28T19:07:08.473Z,14.36
2022-10-28T19:12:52.772Z,14.41
2022-10-28T19:18:32.601Z,14.49
2022-10-28T19:24:12.542Z,14.61
2022-10-28T19:29:53.489Z,14.68
2022-10-28T19:35:33.504Z,14.72
2022-10-28T19:41:18.493Z,14.74
2022-10-28T19:46:58.456Z,14.73
2022-10-28T19:52:38.572Z,14.67
2022-10-28T19:58:18.517Z,14.55
2022-10-28T20:03:58.499Z,14.42
2022-10-28T20:09:39.497Z,14.31
2022-10-28T20:15:21.531Z,14.11
2022-10-28T20:21:01.632Z,13.98
2022-10-28T20:26:43.521Z,13.94
2022-10-28T20:32:23.703Z,13.83
2022-10-28T20:43:50.501Z,13.59
2022-10-28T20:49:30.501Z,13.51
2022-10-28T20:55:10.604Z,13.43
2022-10-28T21:00:50.616Z,13.57
2022-10-28T21:06:31.538Z,13.79
2022-10-28T21:12:11.571Z,13.92
2022-10-28T21:17:51.557Z,13.99
2022-10-28T21:23:38.577Z,14.02
2022-10-28T21:29:18.542Z,13.96
2022-10-28T21:34:58.546Z,13.78
2022-10-28T21:40:38.524Z,13.57
2022-10-28T21:46:19.582Z,13.40
2022-10-28T21:51:59.877Z,13.24
2022-10-28T21:57:44.598Z,13.11
2022-10-28T22:03:25.602Z,12.96
2022-10-28T22:09:07.615Z,12.81
2022-10-28T22:14:49.571Z,12.79
2022-10-28T22:20:29.575Z,12.80
2022-10-28T22:26:13.612Z,12.86
2022-10-28T22:31:54.577Z,12.95
2022-10-28T22:37:34.619Z,13.00
2022-10-28T22:43:14.609Z,13.03
2022-10-28T22:48:54.647Z,13.07
2022-10-28T22:54:34.622Z,13.13
2022-10-28T23:00:14.693Z,13.22
2022-10-28T23:05:54.666Z,13.28
2022-10-28T23:11:35.641Z,13.32
2022-10-28T23:17:15.641Z,13.35
2022-10-28T23:22:55.662Z,13.37
2022-10-28T23:28:35.727Z,13.39
2022-10-28T23:34:15.647Z,13.41
2022-10-28T23:39:55.646Z,13.45
2022-10-28T23:45:35.637Z,13.51
2022-10-28T23:51:15.603Z,13.50
2022-10-28T23:56:55.698Z,13.43
